Ana Sayfa
METAR-TAF:

METAR-TAF

Havaalanları :

A.L. Mangham Jr. Regional Airport

Nacogdoches, Teksas, Amerika Birleşik Devletleri

Enlem: 31-35N, Boylam: 094-43W, yükseklik: 108 m

Güncel hava durumu gözlemi

Rapor saat 21:56 UTC de 25 dakika önce yapıldı.
Sakin rüzgar
Sıcaklık 27°C
Nem 89%
Basınç 1015 hPa
4900 ft yükseklikte az bulutlu
9000 ft yükseklikte parçalı bulutlu
11000 ft yükseklikte çok bulutlu

METAR: KOCH 212156Z AUTO 00000KT FEW049 SCT090 OVC110 27/25 A2998 RMK AO2 LTG DSNT S AND SW SLP152 P0001 T02670250 PWINO RVRNO $

Saat: 17:21 (22:21 UTC)


TAF: eksik

4.000'den fazla havaalanı için hava durumu gözlemleri ve tahminleri (METAR ve TAF raporları).

Kullanılabilir istasyonlar harita üzerinde sarı ve kırmızı noktalarla gösterilir.

İstasyonun adını görmek için fareyi noktanın üzerinde gezdirin.

Sonrasında hava gözlem ve tahminlerini görmek için tıklayın.

Haritayı değiştirmek için: yaklaştırmak için siyah artı işaretli yeşil düğmeye ve uzaklaştırmak için de eksi işaretli düğmeye hızla tıklayın; bitişik haritalar için yeşil okları kullanın.


METAR-TAF: